sensor_id;sensor_type;location;lat;lon;timestamp;temperature;humidity
11989;DHT22;6054;50.966;7.094;2024-02-14T00:46:38;16.20;63.40
11989;DHT22;6054;50.966;7.094;2024-02-14T01:11:38;16.30;63.40
11989;DHT22;6054;50.966;7.094;2024-02-14T01:14:05;16.20;63.40
11989;DHT22;6054;50.966;7.094;2024-02-14T01:16:32;16.20;63.30
11989;DHT22;6054;50.966;7.094;2024-02-14T01:18:59;16.30;63.20
11989;DHT22;6054;50.966;7.094;2024-02-14T01:21:26;16.30;63.20
11989;DHT22;6054;50.966;7.094;2024-02-14T01:23:53;16.30;63.10
11989;DHT22;6054;50.966;7.094;2024-02-14T01:26:20;16.30;62.70
11989;DHT22;6054;50.966;7.094;2024-02-14T01:28:49;16.30;63.70
11989;DHT22;6054;50.966;7.094;2024-02-14T01:31:16;16.30;63.20
11989;DHT22;6054;50.966;7.094;2024-02-14T01:33:43;16.30;63.40
11989;DHT22;6054;50.966;7.094;2024-02-14T01:36:11;16.30;62.70
11989;DHT22;6054;50.966;7.094;2024-02-14T01:38:38;16.30;63.00
11989;DHT22;6054;50.966;7.094;2024-02-14T01:41:05;16.30;63.10
11989;DHT22;6054;50.966;7.094;2024-02-14T01:43:32;16.30;62.50
11989;DHT22;6054;50.966;7.094;2024-02-14T01:46:04;16.30;63.20
11989;DHT22;6054;50.966;7.094;2024-02-14T01:48:32;16.40;63.30
11989;DHT22;6054;50.966;7.094;2024-02-14T01:51:01;16.60;63.80
11989;DHT22;6054;50.966;7.094;2024-02-14T01:53:29;16.40;63.50
11989;DHT22;6054;50.966;7.094;2024-02-14T01:55:56;16.40;63.70
11989;DHT22;6054;50.966;7.094;2024-02-14T01:58:24;16.40;63.30
11989;DHT22;6054;50.966;7.094;2024-02-14T02:00:51;16.70;62.60
11989;DHT22;6054;50.966;7.094;2024-02-14T02:03:22;16.40;61.90
11989;DHT22;6054;50.966;7.094;2024-02-14T02:05:50;16.40;63.80
11989;DHT22;6054;50.966;7.094;2024-02-14T02:08:18;16.40;62.80
11989;DHT22;6054;50.966;7.094;2024-02-14T02:10:45;16.40;62.30
11989;DHT22;6054;50.966;7.094;2024-02-14T02:13:13;16.40;62.60
11989;DHT22;6054;50.966;7.094;2024-02-14T02:15:42;16.40;63.20
11989;DHT22;6054;50.966;7.094;2024-02-14T02:18:11;16.50;63.60
11989;DHT22;6054;50.966;7.094;2024-02-14T02:20:39;16.50;63.10
11989;DHT22;6054;50.966;7.094;2024-02-14T02:23:10;16.50;63.00
11989;DHT22;6054;50.966;7.094;2024-02-14T02:25:40;16.50;63.40
11989;DHT22;6054;50.966;7.094;2024-02-14T02:28:07;16.50;63.30
11989;DHT22;6054;50.966;7.094;2024-02-14T02:30:34;16.50;62.80
11989;DHT22;6054;50.966;7.094;2024-02-14T02:33:02;16.50;63.10
11989;DHT22;6054;50.966;7.094;2024-02-14T02:35:29;16.50;63.20
11989;DHT22;6054;50.966;7.094;2024-02-14T02:37:56;16.50;61.80
11989;DHT22;6054;50.966;7.094;2024-02-14T02:40:25;16.70;63.50
11989;DHT22;6054;50.966;7.094;2024-02-14T02:42:53;16.50;63.30
11989;DHT22;6054;50.966;7.094;2024-02-14T02:45:20;16.50;63.30
11989;DHT22;6054;50.966;7.094;2024-02-14T02:47:47;16.70;63.30
11989;DHT22;6054;50.966;7.094;2024-02-14T02:50:17;16.60;62.80
11989;DHT22;6054;50.966;7.094;2024-02-14T02:52:43;16.50;62.90
11989;DHT22;6054;50.966;7.094;2024-02-14T02:55:10;16.60;63.30
11989;DHT22;6054;50.966;7.094;2024-02-14T02:57:40;16.60;62.70
11989;DHT22;6054;50.966;7.094;2024-02-14T03:00:10;16.60;63.40
11989;DHT22;6054;50.966;7.094;2024-02-14T03:02:38;16.60;63.30
11989;DHT22;6054;50.966;7.094;2024-02-14T03:05:07;16.60;63.70
11989;DHT22;6054;50.966;7.094;2024-02-14T03:07:35;16.60;63.10
11989;DHT22;6054;50.966;7.094;2024-02-14T03:10:02;16.60;63.30
11989;DHT22;6054;50.966;7.094;2024-02-14T03:12:29;16.60;63.70
11989;DHT22;6054;50.966;7.094;2024-02-14T03:15:00;16.60;63.50
11989;DHT22;6054;50.966;7.094;2024-02-14T03:17:30;16.60;63.70
11989;DHT22;6054;50.966;7.094;2024-02-14T03:19:57;16.70;63.40
11989;DHT22;6054;50.966;7.094;2024-02-14T03:22:24;16.60;63.30
11989;DHT22;6054;50.966;7.094;2024-02-14T03:24:50;16.70;63.40
11989;DHT22;6054;50.966;7.094;2024-02-14T03:27:17;16.70;63.10
11989;DHT22;6054;50.966;7.094;2024-02-14T03:29:45;16.70;63.30
11989;DHT22;6054;50.966;7.094;2024-02-14T03:32:14;16.60;62.70
11989;DHT22;6054;50.966;7.094;2024-02-14T03:34:41;16.90;63.20
11989;DHT22;6054;50.966;7.094;2024-02-14T03:37:08;16.60;63.00
11989;DHT22;6054;50.966;7.094;2024-02-14T03:39:35;16.60;63.00
11989;DHT22;6054;50.966;7.094;2024-02-14T03:42:02;16.60;62.40
11989;DHT22;6054;50.966;7.094;2024-02-14T03:44:32;16.60;62.60
11989;DHT22;6054;50.966;7.094;2024-02-14T03:46:59;16.60;62.80
11989;DHT22;6054;50.966;7.094;2024-02-14T03:49:28;16.90;62.30
11989;DHT22;6054;50.966;7.094;2024-02-14T03:51:56;16.90;61.10
11989;DHT22;6054;50.966;7.094;2024-02-14T03:54:22;16.60;62.20
11989;DHT22;6054;50.966;7.094;2024-02-14T03:56:51;16.60;61.80
11989;DHT22;6054;50.966;7.094;2024-02-14T03:59:19;16.60;62.40
11989;DHT22;6054;50.966;7.094;2024-02-14T04:01:50;16.60;62.60
11989;DHT22;6054;50.966;7.094;2024-02-14T04:04:19;16.60;63.00
11989;DHT22;6054;50.966;7.094;2024-02-14T04:06:47;16.60;62.20
11989;DHT22;6054;50.966;7.094;2024-02-14T04:09:14;16.60;62.20
11989;DHT22;6054;50.966;7.094;2024-02-14T04:11:41;16.60;62.40
11989;DHT22;6054;50.966;7.094;2024-02-14T04:14:08;16.60;62.10
11989;DHT22;6054;50.966;7.094;2024-02-14T04:16:35;16.60;62.50
11989;DHT22;6054;50.966;7.094;2024-02-14T04:19:02;16.60;62.70
11989;DHT22;6054;50.966;7.094;2024-02-14T04:21:31;16.70;60.40
11989;DHT22;6054;50.966;7.094;2024-02-14T04:23:59;16.90;61.80
11989;DHT22;6054;50.966;7.094;2024-02-14T04:26:26;16.60;63.00
11989;DHT22;6054;50.966;7.094;2024-02-14T04:28:53;16.60;62.00
11989;DHT22;6054;50.966;7.094;2024-02-14T04:31:19;16.60;62.50
11989;DHT22;6054;50.966;7.094;2024-02-14T04:33:47;16.60;62.00
11989;DHT22;6054;50.966;7.094;2024-02-14T04:36:17;16.70;62.80
11989;DHT22;6054;50.966;7.094;2024-02-14T04:38:44;16.70;62.70
11989;DHT22;6054;50.966;7.094;2024-02-14T04:41:13;16.60;62.50
11989;DHT22;6054;50.966;7.094;2024-02-14T04:43:40;16.70;62.60
11989;DHT22;6054;50.966;7.094;2024-02-14T04:46:07;16.70;63.00
11989;DHT22;6054;50.966;7.094;2024-02-14T04:48:34;16.70;63.30
11989;DHT22;6054;50.966;7.094;2024-02-14T04:51:02;16.70;62.50
11989;DHT22;6054;50.966;7.094;2024-02-14T04:53:30;16.70;63.00
11989;DHT22;6054;50.966;7.094;2024-02-14T04:55:59;16.70;62.80
11989;DHT22;6054;50.966;7.094;2024-02-14T04:58:28;16.70;62.50
11989;DHT22;6054;50.966;7.094;2024-02-14T05:00:55;16.90;62.60
11989;DHT22;6054;50.966;7.094;2024-02-14T05:03:22;16.70;61.00
11989;DHT22;6054;50.966;7.094;2024-02-14T05:05:50;16.70;61.80
11989;DHT22;6054;50.966;7.094;2024-02-14T05:08:17;16.70;62.70
11989;DHT22;6054;50.966;7.094;2024-02-14T05:10:44;16.70;62.10
11989;DHT22;6054;50.966;7.094;2024-02-14T05:13:12;16.70;61.50
11989;DHT22;6054;50.966;7.094;2024-02-14T05:15:44;16.70;63.30
11989;DHT22;6054;50.966;7.094;2024-02-14T05:18:11;16.70;63.50
11989;DHT22;6054;50.966;7.094;2024-02-14T05:20:38;16.80;62.60
11989;DHT22;6054;50.966;7.094;2024-02-14T05:23:05;16.80;63.40
11989;DHT22;6054;50.966;7.094;2024-02-14T05:25:33;16.80;63.00
11989;DHT22;6054;50.966;7.094;2024-02-14T05:28:00;16.80;63.80
11989;DHT22;6054;50.966;7.094;2024-02-14T05:30:28;16.80;63.30
11989;DHT22;6054;50.966;7.094;2024-02-14T05:32:58;16.80;63.40
11989;DHT22;6054;50.966;7.094;2024-02-14T05:35:28;16.80;63.20
11989;DHT22;6054;50.966;7.094;2024-02-14T05:37:55;16.80;63.40
11989;DHT22;6054;50.966;7.094;2024-02-14T05:40:24;16.80;63.40
11989;DHT22;6054;50.966;7.094;2024-02-14T05:42:52;16.90;63.40
11989;DHT22;6054;50.966;7.094;2024-02-14T05:45:19;16.90;63.60
11989;DHT22;6054;50.966;7.094;2024-02-14T05:47:45;16.90;63.20
11989;DHT22;6054;50.966;7.094;2024-02-14T05:50:16;17.00;63.20
11989;DHT22;6054;50.966;7.094;2024-02-14T05:52:44;16.90;61.20
11989;DHT22;6054;50.966;7.094;2024-02-14T05:55:11;16.80;62.50
11989;DHT22;6054;50.966;7.094;2024-02-14T05:57:38;16.80;62.40
11989;DHT22;6054;50.966;7.094;2024-02-14T06:00:07;16.80;62.50
11989;DHT22;6054;50.966;7.094;2024-02-14T06:02:38;16.90;63.20
11989;DHT22;6054;50.966;7.094;2024-02-14T06:05:06;16.90;62.90
11989;DHT22;6054;50.966;7.094;2024-02-14T06:07:36;16.90;63.20
11989;DHT22;6054;50.966;7.094;2024-02-14T06:10:04;17.10;62.30
11989;DHT22;6054;50.966;7.094;2024-02-14T06:12:33;16.90;63.10
11989;DHT22;6054;50.966;7.094;2024-02-14T06:15:01;17.00;63.40
11989;DHT22;6054;50.966;7.094;2024-02-14T06:17:28;16.90;63.50
11989;DHT22;6054;50.966;7.094;2024-02-14T06:19:55;16.90;62.80
11989;DHT22;6054;50.966;7.094;2024-02-14T06:22:24;16.90;63.20
11989;DHT22;6054;50.966;7.094;2024-02-14T06:24:54;16.80;63.40
11989;DHT22;6054;50.966;7.094;2024-02-14T06:27:21;16.80;63.00
11989;DHT22;6054;50.966;7.094;2024-02-14T06:29:51;16.80;63.00
11989;DHT22;6054;50.966;7.094;2024-02-14T06:32:19;16.80;63.70
11989;DHT22;6054;50.966;7.094;2024-02-14T06:34:46;16.80;62.80
11989;DHT22;6054;50.966;7.094;2024-02-14T06:37:13;17.10;62.10
11989;DHT22;6054;50.966;7.094;2024-02-14T06:39:40;17.00;62.30
11989;DHT22;6054;50.966;7.094;2024-02-14T06:42:08;16.80;62.90
11989;DHT22;6054;50.966;7.094;2024-02-14T06:44:35;16.80;62.40
11989;DHT22;6054;50.966;7.094;2024-02-14T06:47:02;17.10;63.60
11989;DHT22;6054;50.966;7.094;2024-02-14T06:49:29;16.90;63.50
11989;DHT22;6054;50.966;7.094;2024-02-14T06:51:56;16.80;62.60
11989;DHT22;6054;50.966;7.094;2024-02-14T06:54:23;16.80;62.10
11989;DHT22;6054;50.966;7.094;2024-02-14T06:56:51;17.20;62.20
11989;DHT22;6054;50.966;7.094;2024-02-14T06:59:20;17.10;62.30
11989;DHT22;6054;50.966;7.094;2024-02-14T07:01:48;16.90;63.40
11989;DHT22;6054;50.966;7.094;2024-02-14T07:04:15;16.90;63.40
11989;DHT22;6054;50.966;7.094;2024-02-14T07:06:45;16.90;63.80
11989;DHT22;6054;50.966;7.094;2024-02-14T07:09:12;16.90;63.50
11989;DHT22;6054;50.966;7.094;2024-02-14T07:11:39;16.90;63.30
11989;DHT22;6054;50.966;7.094;2024-02-14T07:14:06;16.90;63.30
11989;DHT22;6054;50.966;7.094;2024-02-14T07:16:36;17.30;62.40
11989;DHT22;6054;50.966;7.094;2024-02-14T07:19:03;16.90;63.30
11989;DHT22;6054;50.966;7.094;2024-02-14T07:21:34;17.00;63.60
11989;DHT22;6054;50.966;7.094;2024-02-14T07:24:03;17.30;64.70
11989;DHT22;6054;50.966;7.094;2024-02-14T07:26:30;17.00;63.40
11989;DHT22;6054;50.966;7.094;2024-02-14T07:28:58;17.00;63.30
11989;DHT22;6054;50.966;7.094;2024-02-14T07:31:28;17.00;63.40
11989;DHT22;6054;50.966;7.094;2024-02-14T07:34:00;17.00;63.80
11989;DHT22;6054;50.966;7.094;2024-02-14T07:36:28;17.20;63.90
11989;DHT22;6054;50.966;7.094;2024-02-14T07:38:55;17.00;63.80
11989;DHT22;6054;50.966;7.094;2024-02-14T07:41:25;17.20;64.00
11989;DHT22;6054;50.966;7.094;2024-02-14T07:43:52;17.10;63.40
11989;DHT22;6054;50.966;7.094;2024-02-14T07:46:22;17.10;63.60
11989;DHT22;6054;50.966;7.094;2024-02-14T07:48:52;17.00;61.90
11989;DHT22;6054;50.966;7.094;2024-02-14T07:51:21;17.20;62.50
11989;DHT22;6054;50.966;7.094;2024-02-14T07:53:49;17.10;62.70
11989;DHT22;6054;50.966;7.094;2024-02-14T07:56:16;17.10;61.30
11989;DHT22;6054;50.966;7.094;2024-02-14T07:58:46;17.10;62.20
11989;DHT22;6054;50.966;7.094;2024-02-14T08:01:15;17.20;62.60
11989;DHT22;6054;50.966;7.094;2024-02-14T08:03:43;17.10;63.40
11989;DHT22;6054;50.966;7.094;2024-02-14T08:06:11;17.10;63.70
11989;DHT22;6054;50.966;7.094;2024-02-14T08:08:39;17.10;63.90
11989;DHT22;6054;50.966;7.094;2024-02-14T08:11:07;17.20;62.70
11989;DHT22;6054;50.966;7.094;2024-02-14T08:13:36;17.20;62.60
11989;DHT22;6054;50.966;7.094;2024-02-14T08:16:05;17.40;64.20
11989;DHT22;6054;50.966;7.094;2024-02-14T08:18:33;17.30;63.00
11989;DHT22;6054;50.966;7.094;2024-02-14T08:21:02;17.30;62.20
11989;DHT22;6054;50.966;7.094;2024-02-14T08:23:30;17.40;60.40
11989;DHT22;6054;50.966;7.094;2024-02-14T08:25:59;17.30;64.30
11989;DHT22;6054;50.966;7.094;2024-02-14T08:28:27;17.40;64.40
11989;DHT22;6054;50.966;7.094;2024-02-14T08:30:55;17.40;64.50
11989;DHT22;6054;50.966;7.094;2024-02-14T08:33:22;17.40;64.40
11989;DHT22;6054;50.966;7.094;2024-02-14T08:35:52;17.10;60.10
11989;DHT22;6054;50.966;7.094;2024-02-14T08:38:23;17.60;59.90
11989;DHT22;6054;50.966;7.094;2024-02-14T08:40:50;17.50;63.20
11989;DHT22;6054;50.966;7.094;2024-02-14T08:43:19;17.60;63.90
11989;DHT22;6054;50.966;7.094;2024-02-14T08:45:48;17.60;63.30
11989;DHT22;6054;50.966;7.094;2024-02-14T08:48:17;17.70;64.30
11989;DHT22;6054;50.966;7.094;2024-02-14T08:50:45;17.60;63.50
11989;DHT22;6054;50.966;7.094;2024-02-14T08:53:13;17.70;63.60
11989;DHT22;6054;50.966;7.094;2024-02-14T08:55:46;17.60;64.10
11989;DHT22;6054;50.966;7.094;2024-02-14T08:58:14;17.40;59.10
11989;DHT22;6054;50.966;7.094;2024-02-14T09:00:45;17.90;58.90
11989;DHT22;6054;50.966;7.094;2024-02-14T09:03:12;17.90;63.30
11989;DHT22;6054;50.966;7.094;2024-02-14T09:05:42;17.70;63.30
11989;DHT22;6054;50.966;7.094;2024-02-14T09:08:24;17.80;63.90
11989;DHT22;6054;50.966;7.094;2024-02-14T09:10:53;18.00;59.60
11989;DHT22;6054;50.966;7.094;2024-02-14T09:13:20;17.90;58.10
11989;DHT22;6054;50.966;7.094;2024-02-14T09:15:51;18.10;62.60
11989;DHT22;6054;50.966;7.094;2024-02-14T09:18:19;17.80;62.10
11989;DHT22;6054;50.966;7.094;2024-02-14T09:20:46;18.10;61.00
11989;DHT22;6054;50.966;7.094;2024-02-14T09:23:15;18.20;59.70
11989;DHT22;6054;50.966;7.094;2024-02-14T09:25:46;17.90;63.20
11989;DHT22;6054;50.966;7.094;2024-02-14T09:28:15;18.00;64.60
11989;DHT22;6054;50.966;7.094;2024-02-14T09:30:44;18.30;64.50
11989;DHT22;6054;50.966;7.094;2024-02-14T09:33:19;18.20;64.80
11989;DHT22;6054;50.966;7.094;2024-02-14T09:35:46;18.20;64.40
11989;DHT22;6054;50.966;7.094;2024-02-14T09:38:14;18.20;62.70
11989;DHT22;6054;50.966;7.094;2024-02-14T09:40:42;18.60;63.80
11989;DHT22;6054;50.966;7.094;2024-02-14T09:43:16;18.30;64.10
11989;DHT22;6054;50.966;7.094;2024-02-14T09:45:45;18.40;65.00
11989;DHT22;6054;50.966;7.094;2024-02-14T09:48:19;18.20;62.90
11989;DHT22;6054;50.966;7.094;2024-02-14T09:50:49;18.50;64.00
11989;DHT22;6054;50.966;7.094;2024-02-14T09:53:17;18.60;63.30
11989;DHT22;6054;50.966;7.094;2024-02-14T09:55:48;18.60;63.10
11989;DHT22;6054;50.966;7.094;2024-02-14T09:58:18;18.60;61.20
11989;DHT22;6054;50.966;7.094;2024-02-14T10:00:46;18.60;64.10
11989;DHT22;6054;50.966;7.094;2024-02-14T10:03:13;18.70;64.00
11989;DHT22;6054;50.966;7.094;2024-02-14T10:05:43;18.70;59.50
11989;DHT22;6054;50.966;7.094;2024-02-14T10:08:12;18.90;60.20
11989;DHT22;6054;50.966;7.094;2024-02-14T10:10:44;19.00;63.60
11989;DHT22;6054;50.966;7.094;2024-02-14T10:13:11;18.60;60.40
11989;DHT22;6054;50.966;7.094;2024-02-14T10:15:38;19.00;63.10
11989;DHT22;6054;50.966;7.094;2024-02-14T10:18:08;18.90;63.20
11989;DHT22;6054;50.966;7.094;2024-02-14T10:20:37;18.80;62.10
11989;DHT22;6054;50.966;7.094;2024-02-14T10:23:10;19.20;62.60
11989;DHT22;6054;50.966;7.094;2024-02-14T10:25:38;18.80;62.60
11989;DHT22;6054;50.966;7.094;2024-02-14T10:28:06;18.90;62.90
11989;DHT22;6054;50.966;7.094;2024-02-14T10:30:34;18.90;62.40
11989;DHT22;6054;50.966;7.094;2024-02-14T10:33:04;18.90;62.00
11989;DHT22;6054;50.966;7.094;2024-02-14T10:35:32;18.90;63.20
11989;DHT22;6054;50.966;7.094;2024-02-14T10:38:01;19.20;63.60
11989;DHT22;6054;50.966;7.094;2024-02-14T10:40:32;18.90;62.30
11989;DHT22;6054;50.966;7.094;2024-02-14T10:43:01;18.90;63.50
11989;DHT22;6054;50.966;7.094;2024-02-14T10:45:30;18.90;63.50
11989;DHT22;6054;50.966;7.094;2024-02-14T10:48:00;18.90;63.80
11989;DHT22;6054;50.966;7.094;2024-02-14T10:50:34;18.90;64.10
11989;DHT22;6054;50.966;7.094;2024-02-14T10:53:04;18.90;64.40
11989;DHT22;6054;50.966;7.094;2024-02-14T10:55:36;18.90;64.20
11989;DHT22;6054;50.966;7.094;2024-02-14T10:58:04;19.00;64.20
11989;DHT22;6054;50.966;7.094;2024-02-14T11:00:31;18.90;64.50
11989;DHT22;6054;50.966;7.094;2024-02-14T11:03:00;19.00;64.00
11989;DHT22;6054;50.966;7.094;2024-02-14T11:05:29;19.10;64.30
11989;DHT22;6054;50.966;7.094;2024-02-14T11:08:08;19.10;64.20
11989;DHT22;6054;50.966;7.094;2024-02-14T11:10:37;19.20;63.60
11989;DHT22;6054;50.966;7.094;2024-02-14T11:13:04;19.20;63.40
11989;DHT22;6054;50.966;7.094;2024-02-14T11:15:37;19.30;63.70
11989;DHT22;6054;50.966;7.094;2024-02-14T11:18:06;19.30;63.60
11989;DHT22;6054;50.966;7.094;2024-02-14T11:20:35;19.40;63.70
11989;DHT22;6054;50.966;7.094;2024-02-14T11:23:04;19.40;62.60
11989;DHT22;6054;50.966;7.094;2024-02-14T11:25:32;19.40;61.40
11989;DHT22;6054;50.966;7.094;2024-02-14T11:28:13;19.40;61.80
11989;DHT22;6054;50.966;7.094;2024-02-14T11:30:41;19.50;61.90
11989;DHT22;6054;50.966;7.094;2024-02-14T11:33:16;19.60;63.10
11989;DHT22;6054;50.966;7.094;2024-02-14T11:35:46;19.60;62.30
11989;DHT22;6054;50.966;7.094;2024-02-14T11:38:13;19.70;63.30
11989;DHT22;6054;50.966;7.094;2024-02-14T11:40:41;19.60;63.00
11989;DHT22;6054;50.966;7.094;2024-02-14T11:43:14;19.60;62.80
11989;DHT22;6054;50.966;7.094;2024-02-14T11:45:43;19.70;63.00
11989;DHT22;6054;50.966;7.094;2024-02-14T11:48:12;19.70;63.00
11989;DHT22;6054;50.966;7.094;2024-02-14T11:50:42;19.70;63.10
11989;DHT22;6054;50.966;7.094;2024-02-14T11:53:10;19.80;62.80
11989;DHT22;6054;50.966;7.094;2024-02-14T11:55:37;19.80;62.50
11989;DHT22;6054;50.966;7.094;2024-02-14T11:58:15;19.80;61.80
11989;DHT22;6054;50.966;7.094;2024-02-14T12:01:16;19.80;62.60
11989;DHT22;6054;50.966;7.094;2024-02-14T12:03:43;19.80;62.10
11989;DHT22;6054;50.966;7.094;2024-02-14T12:06:12;19.80;61.80
11989;DHT22;6054;50.966;7.094;2024-02-14T12:08:46;19.90;61.60
11989;DHT22;6054;50.966;7.094;2024-02-14T12:11:14;19.80;61.00
11989;DHT22;6054;50.966;7.094;2024-02-14T12:13:48;19.80;61.60
11989;DHT22;6054;50.966;7.094;2024-02-14T12:16:23;19.90;62.30
11989;DHT22;6054;50.966;7.094;2024-02-14T12:19:07;19.90;61.30
11989;DHT22;6054;50.966;7.094;2024-02-14T12:21:35;19.90;62.10
11989;DHT22;6054;50.966;7.094;2024-02-14T12:24:03;19.90;60.90
11989;DHT22;6054;50.966;7.094;2024-02-14T12:26:46;19.90;59.90
11989;DHT22;6054;50.966;7.094;2024-02-14T12:29:14;19.80;60.00
11989;DHT22;6054;50.966;7.094;2024-02-14T12:31:45;19.80;60.80
11989;DHT22;6054;50.966;7.094;2024-02-14T12:34:13;19.80;60.30
11989;DHT22;6054;50.966;7.094;2024-02-14T12:36:40;19.80;60.60
11989;DHT22;6054;50.966;7.094;2024-02-14T12:39:08;19.80;59.50
11989;DHT22;6054;50.966;7.094;2024-02-14T12:41:38;19.80;60.40
11989;DHT22;6054;50.966;7.094;2024-02-14T12:44:12;19.80;60.80
11989;DHT22;6054;50.966;7.094;2024-02-14T12:46:40;19.90;61.70
11989;DHT22;6054;50.966;7.094;2024-02-14T12:49:08;19.90;61.00
11989;DHT22;6054;50.966;7.094;2024-02-14T12:51:36;19.90;61.50
11989;DHT22;6054;50.966;7.094;2024-02-14T12:54:04;20.10;62.10
11989;DHT22;6054;50.966;7.094;2024-02-14T12:56:35;20.00;58.60
11989;DHT22;6054;50.966;7.094;2024-02-14T12:59:02;19.90;62.00
11989;DHT22;6054;50.966;7.094;2024-02-14T13:01:29;20.30;60.10
11989;DHT22;6054;50.966;7.094;2024-02-14T13:03:57;19.90;60.60
11989;DHT22;6054;50.966;7.094;2024-02-14T13:06:26;19.90;60.70
11989;DHT22;6054;50.966;7.094;2024-02-14T13:08:54;20.00;61.30
11989;DHT22;6054;50.966;7.094;2024-02-14T13:14:15;20.10;62.20
11989;DHT22;6054;50.966;7.094;2024-02-14T13:17:16;20.30;58.90
11989;DHT22;6054;50.966;7.094;2024-02-14T13:19:43;20.20;61.40
11989;DHT22;6054;50.966;7.094;2024-02-14T13:22:21;20.20;59.60
11989;DHT22;6054;50.966;7.094;2024-02-14T13:28:23;19.90;60.50
11989;DHT22;6054;50.966;7.094;2024-02-14T13:45:50;20.20;61.70
11989;DHT22;6054;50.966;7.094;2024-02-14T13:51:37;20.20;60.70
11989;DHT22;6054;50.966;7.094;2024-02-14T13:54:42;20.20;61.60
11989;DHT22;6054;50.966;7.094;2024-02-14T13:57:17;20.20;61.60
11989;DHT22;6054;50.966;7.094;2024-02-14T13:59:46;19.90;59.10
11989;DHT22;6054;50.966;7.094;2024-02-14T14:09:19;20.10;61.50
11989;DHT22;6054;50.966;7.094;2024-02-14T14:38:03;19.70;62.60
11989;DHT22;6054;50.966;7.094;2024-02-14T14:40:38;19.70;61.40
11989;DHT22;6054;50.966;7.094;2024-02-14T14:43:16;19.70;58.70
11989;DHT22;6054;50.966;7.094;2024-02-14T14:45:46;19.40;62.50
11989;DHT22;6054;50.966;7.094;2024-02-14T14:48:15;19.30;61.10
11989;DHT22;6054;50.966;7.094;2024-02-14T14:50:57;19.20;62.10
11989;DHT22;6054;50.966;7.094;2024-02-14T14:53:36;19.30;61.90
11989;DHT22;6054;50.966;7.094;2024-02-14T14:56:06;18.90;61.90
11989;DHT22;6054;50.966;7.094;2024-02-14T14:58:35;19.00;60.00
11989;DHT22;6054;50.966;7.094;2024-02-14T15:01:08;18.90;60.00
11989;DHT22;6054;50.966;7.094;2024-02-14T15:03:35;18.80;61.00
11989;DHT22;6054;50.966;7.094;2024-02-14T15:06:02;19.00;61.20
11989;DHT22;6054;50.966;7.094;2024-02-14T15:08:29;18.80;61.00
11989;DHT22;6054;50.966;7.094;2024-02-14T15:11:44;18.70;62.40
11989;DHT22;6054;50.966;7.094;2024-02-14T15:13:58;18.90;62.90
11989;DHT22;6054;50.966;7.094;2024-02-14T15:16:25;18.90;62.30
11989;DHT22;6054;50.966;7.094;2024-02-14T15:18:54;19.00;61.90
11989;DHT22;6054;50.966;7.094;2024-02-14T15:21:22;18.60;64.10
11989;DHT22;6054;50.966;7.094;2024-02-14T15:23:50;18.80;63.00
11989;DHT22;6054;50.966;7.094;2024-02-14T15:26:22;18.90;61.30
11989;DHT22;6054;50.966;7.094;2024-02-14T15:28:52;18.60;65.40
11989;DHT22;6054;50.966;7.094;2024-02-14T15:31:43;18.90;64.70
11989;DHT22;6054;50.966;7.094;2024-02-14T15:34:27;18.70;63.30
11989;DHT22;6054;50.966;7.094;2024-02-14T15:36:56;18.60;63.30
11989;DHT22;6054;50.966;7.094;2024-02-14T15:39:24;18.60;63.70
11989;DHT22;6054;50.966;7.094;2024-02-14T15:41:54;19.00;63.70
11989;DHT22;6054;50.966;7.094;2024-02-14T15:44:27;18.60;61.80
11989;DHT22;6054;50.966;7.094;2024-02-14T15:46:55;19.00;64.80
11989;DHT22;6054;50.966;7.094;2024-02-14T15:49:22;18.90;62.60
11989;DHT22;6054;50.966;7.094;2024-02-14T15:51:51;18.60;64.90
11989;DHT22;6054;50.966;7.094;2024-02-14T15:54:20;18.80;65.60
11989;DHT22;6054;50.966;7.094;2024-02-14T15:56:47;18.60;65.40
11989;DHT22;6054;50.966;7.094;2024-02-14T15:59:17;18.70;65.40
11989;DHT22;6054;50.966;7.094;2024-02-14T16:01:46;18.60;65.20
11989;DHT22;6054;50.966;7.094;2024-02-14T16:04:14;18.60;65.20
11989;DHT22;6054;50.966;7.094;2024-02-14T16:06:44;18.60;65.50
11989;DHT22;6054;50.966;7.094;2024-02-14T16:09:11;18.60;65.10
11989;DHT22;6054;50.966;7.094;2024-02-14T16:11:38;18.60;65.20
11989;DHT22;6054;50.966;7.094;2024-02-14T16:14:05;18.60;65.20
11989;DHT22;6054;50.966;7.094;2024-02-14T16:16:33;18.70;65.30
11989;DHT22;6054;50.966;7.094;2024-02-14T16:19:00;18.60;64.90
11989;DHT22;6054;50.966;7.094;2024-02-14T16:21:28;18.90;65.30
11989;DHT22;6054;50.966;7.094;2024-02-14T16:23:55;18.60;64.80
11989;DHT22;6054;50.966;7.094;2024-02-14T16:26:21;18.70;63.60
11989;DHT22;6054;50.966;7.094;2024-02-14T16:28:48;18.60;64.20
11989;DHT22;6054;50.966;7.094;2024-02-14T16:31:16;18.60;64.60
11989;DHT22;6054;50.966;7.094;2024-02-14T16:33:45;18.60;64.30
11989;DHT22;6054;50.966;7.094;2024-02-14T16:36:12;18.60;64.00
11989;DHT22;6054;50.966;7.094;2024-02-14T16:38:38;18.50;63.80
11989;DHT22;6054;50.966;7.094;2024-02-14T16:41:09;18.50;63.90
11989;DHT22;6054;50.966;7.094;2024-02-14T16:43:37;18.50;64.40
11989;DHT22;6054;50.966;7.094;2024-02-14T16:46:09;18.80;64.80
11989;DHT22;6054;50.966;7.094;2024-02-14T16:48:45;18.50;65.60
11989;DHT22;6054;50.966;7.094;2024-02-14T16:51:19;18.50;63.60
11989;DHT22;6054;50.966;7.094;2024-02-14T16:53:46;18.50;64.80
11989;DHT22;6054;50.966;7.094;2024-02-14T16:56:13;18.50;64.40
11989;DHT22;6054;50.966;7.094;2024-02-14T16:58:42;18.90;66.20
11989;DHT22;6054;50.966;7.094;2024-02-14T17:01:10;18.70;64.00
11989;DHT22;6054;50.966;7.094;2024-02-14T17:03:38;18.50;64.40
11989;DHT22;6054;50.966;7.094;2024-02-14T17:06:13;18.90;65.30
11989;DHT22;6054;50.966;7.094;2024-02-14T17:08:45;18.60;65.90
11989;DHT22;6054;50.966;7.094;2024-02-14T17:11:12;18.60;64.50
11989;DHT22;6054;50.966;7.094;2024-02-14T17:13:41;18.60;65.90
11989;DHT22;6054;50.966;7.094;2024-02-14T17:16:08;18.70;64.30
11989;DHT22;6054;50.966;7.094;2024-02-14T17:18:35;18.60;64.40
11989;DHT22;6054;50.966;7.094;2024-02-14T17:21:07;18.60;65.50
11989;DHT22;6054;50.966;7.094;2024-02-14T17:23:36;18.60;63.60
11989;DHT22;6054;50.966;7.094;2024-02-14T17:26:06;18.60;64.10
11989;DHT22;6054;50.966;7.094;2024-02-14T17:28:34;18.60;65.90
11989;DHT22;6054;50.966;7.094;2024-02-14T17:31:03;18.80;64.80
11989;DHT22;6054;50.966;7.094;2024-02-14T17:33:32;18.60;65.10
11989;DHT22;6054;50.966;7.094;2024-02-14T17:36:00;18.80;64.60
11989;DHT22;6054;50.966;7.094;2024-02-14T17:38:28;18.60;65.20
11989;DHT22;6054;50.966;7.094;2024-02-14T17:40:58;18.70;64.60
11989;DHT22;6054;50.966;7.094;2024-02-14T17:43:26;19.00;65.30
11989;DHT22;6054;50.966;7.094;2024-02-14T17:45:56;18.90;64.90
11989;DHT22;6054;50.966;7.094;2024-02-14T17:48:23;18.70;66.40
11989;DHT22;6054;50.966;7.094;2024-02-14T17:50:51;18.70;66.10
11989;DHT22;6054;50.966;7.094;2024-02-14T17:53:18;18.70;65.70
11989;DHT22;6054;50.966;7.094;2024-02-14T17:55:47;18.60;65.20
11989;DHT22;6054;50.966;7.094;2024-02-14T17:58:16;18.60;65.90
11989;DHT22;6054;50.966;7.094;2024-02-14T18:00:49;18.60;66.00
11989;DHT22;6054;50.966;7.094;2024-02-14T18:03:16;18.60;66.30